Bushville, New York
Current Conditions -  °F | °C
As of 12:54 PM on Monday 24 Nov 2014 (Local Time) from KBUF Reporting Station
Broken Clouds Broken Clouds  
Wind Chill: 64°   Ceiling: 12000
Heat Index: 64°   Visibility: 10mi
Dew Point: 47°   Wind: 25mph
Humidity: 54%   Direction: 200°SSW
Pressure: 29.23"   Gusts: 36mph
Location:  42.9969°N, 78.2158°W
Report Text: KBUF 241754Z 20022G31KT 10SM FEW035 FEW060 BKN120 18/08 A2923 RMK AO2 PK WND 20032/1709 SLP897 MDT CU DSNT NE S-SW SHRA DSNT E-S-SW W T01780083 10183 20139 58022
Loading
Personal Weather Stations






























Interactive Weather Map New forecast layout! Learn more

10-Day Weather Forecast

Advertisements
Track Severe Weather on mobile